sensor_id;sensor_type;location;lat;lon;timestamp;P1;durP1;ratioP1;P2;durP2;ratioP2
28762;SDS011;15918;51.270;6.522;2022-08-19T00:00:45;12.90;;;11.60;;
28762;SDS011;15918;51.270;6.522;2022-08-19T00:03:10;12.13;;;11.02;;
28762;SDS011;15918;51.270;6.522;2022-08-19T00:05:36;12.57;;;11.38;;
28762;SDS011;15918;51.270;6.522;2022-08-19T00:08:02;11.93;;;10.85;;
28762;SDS011;15918;51.270;6.522;2022-08-19T00:10:28;10.82;;;9.82;;
28762;SDS011;15918;51.270;6.522;2022-08-19T00:12:53;12.07;;;10.98;;
28762;SDS011;15918;51.270;6.522;2022-08-19T00:15:20;16.13;;;10.65;;
28762;SDS011;15918;51.270;6.522;2022-08-19T00:17:46;11.10;;;10.10;;
28762;SDS011;15918;51.270;6.522;2022-08-19T00:20:13;11.80;;;10.68;;
28762;SDS011;15918;51.270;6.522;2022-08-19T00:22:42;12.00;;;10.90;;
28762;SDS011;15918;51.270;6.522;2022-08-19T00:25:09;10.88;;;9.95;;
28762;SDS011;15918;51.270;6.522;2022-08-19T00:27:35;12.15;;;10.98;;
28762;SDS011;15918;51.270;6.522;2022-08-19T00:30:02;11.73;;;10.63;;
28762;SDS011;15918;51.270;6.522;2022-08-19T00:32:30;12.95;;;11.73;;
28762;SDS011;15918;51.270;6.522;2022-08-19T00:34:56;12.90;;;11.70;;
28762;SDS011;15918;51.270;6.522;2022-08-19T00:37:22;12.93;;;11.35;;
28762;SDS011;15918;51.270;6.522;2022-08-19T00:39:50;13.70;;;11.38;;
28762;SDS011;15918;51.270;6.522;2022-08-19T00:42:16;11.85;;;10.75;;
28762;SDS011;15918;51.270;6.522;2022-08-19T00:44:42;11.77;;;10.75;;
28762;SDS011;15918;51.270;6.522;2022-08-19T00:47:08;12.27;;;11.15;;
28762;SDS011;15918;51.270;6.522;2022-08-19T00:49:40;12.63;;;10.63;;
28762;SDS011;15918;51.270;6.522;2022-08-19T00:52:15;11.80;;;10.75;;
28762;SDS011;15918;51.270;6.522;2022-08-19T00:54:44;12.23;;;11.10;;
28762;SDS011;15918;51.270;6.522;2022-08-19T00:57:13;11.50;;;10.50;;
28762;SDS011;15918;51.270;6.522;2022-08-19T00:59:42;12.10;;;11.07;;
28762;SDS011;15918;51.270;6.522;2022-08-19T01:02:11;11.35;;;10.35;;
28762;SDS011;15918;51.270;6.522;2022-08-19T01:04:37;11.85;;;10.70;;
28762;SDS011;15918;51.270;6.522;2022-08-19T01:07:03;12.15;;;10.38;;
28762;SDS011;15918;51.270;6.522;2022-08-19T01:09:29;11.27;;;10.27;;
28762;SDS011;15918;51.270;6.522;2022-08-19T01:11:55;11.65;;;10.73;;
28762;SDS011;15918;51.270;6.522;2022-08-19T01:14:22;11.93;;;10.93;;
28762;SDS011;15918;51.270;6.522;2022-08-19T01:16:49;12.60;;;11.50;;
28762;SDS011;15918;51.270;6.522;2022-08-19T01:19:22;12.52;;;11.40;;
28762;SDS011;15918;51.270;6.522;2022-08-19T01:21:55;14.05;;;12.85;;
28762;SDS011;15918;51.270;6.522;2022-08-19T01:24:30;13.35;;;12.15;;
28762;SDS011;15918;51.270;6.522;2022-08-19T01:26:56;13.32;;;12.13;;
28762;SDS011;15918;51.270;6.522;2022-08-19T01:29:23;13.70;;;12.40;;
28762;SDS011;15918;51.270;6.522;2022-08-19T01:31:48;14.88;;;13.57;;
28762;SDS011;15918;51.270;6.522;2022-08-19T01:34:17;14.95;;;13.48;;
28762;SDS011;15918;51.270;6.522;2022-08-19T01:36:44;14.27;;;12.65;;
28762;SDS011;15918;51.270;6.522;2022-08-19T01:39:13;14.68;;;13.40;;
28762;SDS011;15918;51.270;6.522;2022-08-19T01:41:41;14.10;;;12.80;;
28762;SDS011;15918;51.270;6.522;2022-08-19T01:44:08;13.50;;;12.25;;
28762;SDS011;15918;51.270;6.522;2022-08-19T01:46:35;14.93;;;13.57;;
28762;SDS011;15918;51.270;6.522;2022-08-19T01:49:02;14.13;;;12.73;;
28762;SDS011;15918;51.270;6.522;2022-08-19T01:51:30;16.60;;;12.98;;
28762;SDS011;15918;51.270;6.522;2022-08-19T01:53:56;14.48;;;13.25;;
28762;SDS011;15918;51.270;6.522;2022-08-19T01:56:23;13.90;;;12.80;;
28762;SDS011;15918;51.270;6.522;2022-08-19T01:58:50;14.90;;;13.48;;
28762;SDS011;15918;51.270;6.522;2022-08-19T02:01:22;15.07;;;13.65;;
28762;SDS011;15918;51.270;6.522;2022-08-19T02:03:48;14.48;;;13.18;;
28762;SDS011;15918;51.270;6.522;2022-08-19T02:06:14;15.07;;;13.52;;
28762;SDS011;15918;51.270;6.522;2022-08-19T02:08:41;15.13;;;13.52;;
28762;SDS011;15918;51.270;6.522;2022-08-19T02:11:10;15.40;;;13.27;;
28762;SDS011;15918;51.270;6.522;2022-08-19T02:13:44;14.55;;;12.95;;
28762;SDS011;15918;51.270;6.522;2022-08-19T02:16:10;16.85;;;15.32;;
28762;SDS011;15918;51.270;6.522;2022-08-19T02:18:35;16.90;;;15.20;;
28762;SDS011;15918;51.270;6.522;2022-08-19T02:21:01;15.82;;;14.45;;
28762;SDS011;15918;51.270;6.522;2022-08-19T02:23:26;17.45;;;15.90;;
28762;SDS011;15918;51.270;6.522;2022-08-19T02:25:52;17.30;;;15.80;;
28762;SDS011;15918;51.270;6.522;2022-08-19T02:28:17;17.95;;;16.13;;
28762;SDS011;15918;51.270;6.522;2022-08-19T02:30:43;17.98;;;16.23;;
28762;SDS011;15918;51.270;6.522;2022-08-19T02:33:08;19.35;;;17.65;;
28762;SDS011;15918;51.270;6.522;2022-08-19T02:35:34;20.23;;;18.42;;
28762;SDS011;15918;51.270;6.522;2022-08-19T02:37:59;19.38;;;17.27;;
28762;SDS011;15918;51.270;6.522;2022-08-19T02:40:50;20.20;;;18.30;;
28762;SDS011;15918;51.270;6.522;2022-08-19T02:43:18;21.15;;;19.27;;
28762;SDS011;15918;51.270;6.522;2022-08-19T02:45:47;22.58;;;20.38;;
28762;SDS011;15918;51.270;6.522;2022-08-19T02:48:17;21.38;;;19.50;;
28762;SDS011;15918;51.270;6.522;2022-08-19T02:50:44;21.75;;;19.77;;
28762;SDS011;15918;51.270;6.522;2022-08-19T02:53:11;21.77;;;19.58;;
28762;SDS011;15918;51.270;6.522;2022-08-19T02:55:42;21.50;;;19.30;;
28762;SDS011;15918;51.270;6.522;2022-08-19T02:58:11;23.45;;;20.70;;
28762;SDS011;15918;51.270;6.522;2022-08-19T03:00:41;21.10;;;19.20;;
28762;SDS011;15918;51.270;6.522;2022-08-19T03:03:08;21.33;;;19.23;;
28762;SDS011;15918;51.270;6.522;2022-08-19T03:05:34;22.02;;;20.02;;
28762;SDS011;15918;51.270;6.522;2022-08-19T03:07:59;21.48;;;19.45;;
28762;SDS011;15918;51.270;6.522;2022-08-19T03:10:25;22.15;;;19.95;;
28762;SDS011;15918;51.270;6.522;2022-08-19T03:12:50;22.45;;;20.23;;
28762;SDS011;15918;51.270;6.522;2022-08-19T03:15:16;21.10;;;19.10;;
28762;SDS011;15918;51.270;6.522;2022-08-19T03:17:41;22.05;;;20.02;;
28762;SDS011;15918;51.270;6.522;2022-08-19T03:20:07;20.45;;;18.60;;
28762;SDS011;15918;51.270;6.522;2022-08-19T03:22:33;21.27;;;19.17;;
28762;SDS011;15918;51.270;6.522;2022-08-19T03:24:59;19.98;;;18.08;;
28762;SDS011;15918;51.270;6.522;2022-08-19T03:27:24;21.83;;;19.73;;
28762;SDS011;15918;51.270;6.522;2022-08-19T03:29:50;21.02;;;19.13;;
28762;SDS011;15918;51.270;6.522;2022-08-19T03:32:16;21.67;;;19.65;;
28762;SDS011;15918;51.270;6.522;2022-08-19T03:34:42;21.58;;;19.63;;
28762;SDS011;15918;51.270;6.522;2022-08-19T03:37:09;22.15;;;20.02;;
28762;SDS011;15918;51.270;6.522;2022-08-19T03:39:40;22.65;;;20.55;;
28762;SDS011;15918;51.270;6.522;2022-08-19T03:42:07;22.00;;;20.08;;
28762;SDS011;15918;51.270;6.522;2022-08-19T03:44:33;22.45;;;20.33;;
28762;SDS011;15918;51.270;6.522;2022-08-19T03:47:01;24.13;;;21.73;;
28762;SDS011;15918;51.270;6.522;2022-08-19T03:49:27;23.10;;;20.80;;
28762;SDS011;15918;51.270;6.522;2022-08-19T03:51:55;22.67;;;20.42;;
28762;SDS011;15918;51.270;6.522;2022-08-19T03:54:23;23.70;;;21.50;;
28762;SDS011;15918;51.270;6.522;2022-08-19T03:56:52;23.92;;;21.60;;
28762;SDS011;15918;51.270;6.522;2022-08-19T03:59:20;23.58;;;21.42;;
28762;SDS011;15918;51.270;6.522;2022-08-19T04:01:53;24.00;;;21.80;;
28762;SDS011;15918;51.270;6.522;2022-08-19T04:04:20;25.70;;;23.30;;
28762;SDS011;15918;51.270;6.522;2022-08-19T04:06:46;26.52;;;24.05;;
28762;SDS011;15918;51.270;6.522;2022-08-19T04:09:12;27.85;;;25.27;;
28762;SDS011;15918;51.270;6.522;2022-08-19T04:11:49;28.00;;;25.17;;
28762;SDS011;15918;51.270;6.522;2022-08-19T04:14:19;30.00;;;27.05;;
28762;SDS011;15918;51.270;6.522;2022-08-19T04:16:47;30.08;;;27.17;;
28762;SDS011;15918;51.270;6.522;2022-08-19T04:19:14;30.83;;;27.83;;
28762;SDS011;15918;51.270;6.522;2022-08-19T04:21:43;30.55;;;27.73;;
28762;SDS011;15918;51.270;6.522;2022-08-19T04:24:10;33.38;;;30.05;;
28762;SDS011;15918;51.270;6.522;2022-08-19T04:26:37;30.92;;;27.95;;
28762;SDS011;15918;51.270;6.522;2022-08-19T04:29:05;32.97;;;29.75;;
28762;SDS011;15918;51.270;6.522;2022-08-19T04:32:00;34.55;;;31.08;;
28762;SDS011;15918;51.270;6.522;2022-08-19T04:34:27;33.95;;;30.75;;
28762;SDS011;15918;51.270;6.522;2022-08-19T04:36:55;34.85;;;31.48;;
28762;SDS011;15918;51.270;6.522;2022-08-19T04:39:24;35.78;;;32.17;;
28762;SDS011;15918;51.270;6.522;2022-08-19T04:42:13;35.80;;;32.13;;
28762;SDS011;15918;51.270;6.522;2022-08-19T04:44:59;36.03;;;32.53;;
28762;SDS011;15918;51.270;6.522;2022-08-19T04:47:24;37.50;;;33.67;;
28762;SDS011;15918;51.270;6.522;2022-08-19T04:49:50;39.03;;;35.13;;
28762;SDS011;15918;51.270;6.522;2022-08-19T04:52:16;36.20;;;32.65;;
28762;SDS011;15918;51.270;6.522;2022-08-19T04:54:42;35.83;;;32.38;;
28762;SDS011;15918;51.270;6.522;2022-08-19T04:57:07;39.80;;;35.63;;
28762;SDS011;15918;51.270;6.522;2022-08-19T04:59:34;38.72;;;34.70;;
28762;SDS011;15918;51.270;6.522;2022-08-19T05:02:01;39.60;;;35.17;;
28762;SDS011;15918;51.270;6.522;2022-08-19T05:04:27;36.38;;;32.88;;
28762;SDS011;15918;51.270;6.522;2022-08-19T05:06:56;38.10;;;34.40;;
28762;SDS011;15918;51.270;6.522;2022-08-19T05:09:22;41.38;;;37.25;;
28762;SDS011;15918;51.270;6.522;2022-08-19T05:11:48;37.60;;;33.83;;
28762;SDS011;15918;51.270;6.522;2022-08-19T05:14:14;39.92;;;36.08;;
28762;SDS011;15918;51.270;6.522;2022-08-19T05:16:40;40.15;;;36.03;;
28762;SDS011;15918;51.270;6.522;2022-08-19T05:19:06;38.30;;;34.47;;
28762;SDS011;15918;51.270;6.522;2022-08-19T05:21:50;41.30;;;36.67;;
28762;SDS011;15918;51.270;6.522;2022-08-19T05:24:35;39.75;;;35.75;;
28762;SDS011;15918;51.270;6.522;2022-08-19T05:27:01;41.28;;;37.08;;
28762;SDS011;15918;51.270;6.522;2022-08-19T05:29:29;39.75;;;35.80;;
28762;SDS011;15918;51.270;6.522;2022-08-19T05:31:56;43.25;;;38.80;;
28762;SDS011;15918;51.270;6.522;2022-08-19T05:34:23;39.75;;;35.72;;
28762;SDS011;15918;51.270;6.522;2022-08-19T05:36:52;43.72;;;39.20;;
28762;SDS011;15918;51.270;6.522;2022-08-19T05:39:22;41.03;;;37.03;;
28762;SDS011;15918;51.270;6.522;2022-08-19T05:41:50;40.03;;;36.05;;
28762;SDS011;15918;51.270;6.522;2022-08-19T05:44:18;38.00;;;34.25;;
28762;SDS011;15918;51.270;6.522;2022-08-19T05:46:46;39.33;;;35.22;;
28762;SDS011;15918;51.270;6.522;2022-08-19T05:49:12;38.15;;;34.38;;
28762;SDS011;15918;51.270;6.522;2022-08-19T05:51:40;37.13;;;33.42;;
28762;SDS011;15918;51.270;6.522;2022-08-19T05:54:05;40.38;;;36.17;;
28762;SDS011;15918;51.270;6.522;2022-08-19T05:56:32;39.53;;;35.33;;
28762;SDS011;15918;51.270;6.522;2022-08-19T05:59:01;41.05;;;35.53;;
28762;SDS011;15918;51.270;6.522;2022-08-19T06:01:27;40.00;;;35.70;;
28762;SDS011;15918;51.270;6.522;2022-08-19T06:03:53;36.50;;;32.65;;
28762;SDS011;15918;51.270;6.522;2022-08-19T06:06:19;37.50;;;33.50;;
28762;SDS011;15918;51.270;6.522;2022-08-19T06:08:44;36.42;;;32.47;;
28762;SDS011;15918;51.270;6.522;2022-08-19T06:11:22;38.65;;;32.85;;
28762;SDS011;15918;51.270;6.522;2022-08-19T06:13:51;34.28;;;30.85;;
28762;SDS011;15918;51.270;6.522;2022-08-19T06:16:18;35.97;;;32.28;;
28762;SDS011;15918;51.270;6.522;2022-08-19T06:18:47;34.67;;;31.02;;
28762;SDS011;15918;51.270;6.522;2022-08-19T06:21:13;34.88;;;30.77;;
28762;SDS011;15918;51.270;6.522;2022-08-19T06:23:39;36.28;;;29.88;;
28762;SDS011;15918;51.270;6.522;2022-08-19T06:26:05;35.05;;;28.65;;
28762;SDS011;15918;51.270;6.522;2022-08-19T06:28:31;30.95;;;27.63;;
28762;SDS011;15918;51.270;6.522;2022-08-19T06:30:58;29.02;;;25.83;;
28762;SDS011;15918;51.270;6.522;2022-08-19T06:33:24;33.95;;;30.33;;
28762;SDS011;15918;51.270;6.522;2022-08-19T06:35:50;28.88;;;25.33;;
28762;SDS011;15918;51.270;6.522;2022-08-19T06:38:16;26.92;;;24.02;;
28762;SDS011;15918;51.270;6.522;2022-08-19T06:40:41;28.75;;;24.73;;
28762;SDS011;15918;51.270;6.522;2022-08-19T06:43:07;29.08;;;26.08;;
28762;SDS011;15918;51.270;6.522;2022-08-19T06:45:33;29.25;;;25.70;;
28762;SDS011;15918;51.270;6.522;2022-08-19T06:48:01;30.98;;;27.67;;
28762;SDS011;15918;51.270;6.522;2022-08-19T06:50:27;31.63;;;28.23;;
28762;SDS011;15918;51.270;6.522;2022-08-19T06:52:52;30.27;;;27.17;;
28762;SDS011;15918;51.270;6.522;2022-08-19T06:55:19;32.50;;;29.05;;
28762;SDS011;15918;51.270;6.522;2022-08-19T06:57:44;34.78;;;31.05;;
28762;SDS011;15918;51.270;6.522;2022-08-19T07:00:11;36.50;;;32.58;;
28762;SDS011;15918;51.270;6.522;2022-08-19T07:02:40;38.75;;;34.55;;
28762;SDS011;15918;51.270;6.522;2022-08-19T07:05:06;40.17;;;33.92;;
28762;SDS011;15918;51.270;6.522;2022-08-19T07:07:32;40.20;;;34.30;;
28762;SDS011;15918;51.270;6.522;2022-08-19T07:09:59;36.75;;;32.63;;
28762;SDS011;15918;51.270;6.522;2022-08-19T07:12:26;35.55;;;31.70;;
28762;SDS011;15918;51.270;6.522;2022-08-19T07:14:59;38.67;;;34.50;;
28762;SDS011;15918;51.270;6.522;2022-08-19T07:17:25;38.28;;;32.50;;
28762;SDS011;15918;51.270;6.522;2022-08-19T07:19:51;36.35;;;32.30;;
28762;SDS011;15918;51.270;6.522;2022-08-19T07:22:17;39.55;;;35.25;;
28762;SDS011;15918;51.270;6.522;2022-08-19T07:24:45;44.75;;;37.40;;
28762;SDS011;15918;51.270;6.522;2022-08-19T07:27:13;45.65;;;38.33;;
28762;SDS011;15918;51.270;6.522;2022-08-19T07:29:39;37.88;;;33.45;;
28762;SDS011;15918;51.270;6.522;2022-08-19T07:32:05;40.97;;;36.40;;
28762;SDS011;15918;51.270;6.522;2022-08-19T07:34:31;47.78;;;41.08;;
28762;SDS011;15918;51.270;6.522;2022-08-19T07:37:02;53.53;;;46.35;;
28762;SDS011;15918;51.270;6.522;2022-08-19T07:39:29;56.35;;;48.55;;
28762;SDS011;15918;51.270;6.522;2022-08-19T07:41:57;65.10;;;50.20;;
28762;SDS011;15918;51.270;6.522;2022-08-19T07:44:25;63.85;;;50.78;;
28762;SDS011;15918;51.270;6.522;2022-08-19T07:46:52;58.10;;;46.28;;
28762;SDS011;15918;51.270;6.522;2022-08-19T07:49:20;53.55;;;45.13;;
28762;SDS011;15918;51.270;6.522;2022-08-19T07:51:47;54.88;;;45.83;;
28762;SDS011;15918;51.270;6.522;2022-08-19T07:54:19;59.45;;;47.28;;
28762;SDS011;15918;51.270;6.522;2022-08-19T07:56:45;63.72;;;50.33;;
28762;SDS011;15918;51.270;6.522;2022-08-19T07:59:11;57.40;;;48.25;;
28762;SDS011;15918;51.270;6.522;2022-08-19T08:01:38;56.92;;;47.60;;
28762;SDS011;15918;51.270;6.522;2022-08-19T08:04:05;61.72;;;48.42;;
28762;SDS011;15918;51.270;6.522;2022-08-19T08:06:50;64.10;;;49.90;;
28762;SDS011;15918;51.270;6.522;2022-08-19T08:09:35;59.95;;;47.88;;
28762;SDS011;15918;51.270;6.522;2022-08-19T08:12:04;58.17;;;48.05;;
28762;SDS011;15918;51.270;6.522;2022-08-19T08:14:43;57.83;;;46.97;;
28762;SDS011;15918;51.270;6.522;2022-08-19T08:17:14;53.67;;;45.67;;
28762;SDS011;15918;51.270;6.522;2022-08-19T08:19:41;55.17;;;46.22;;
28762;SDS011;15918;51.270;6.522;2022-08-19T08:22:08;56.83;;;45.50;;
28762;SDS011;15918;51.270;6.522;2022-08-19T08:25:03;54.92;;;45.78;;
28762;SDS011;15918;51.270;6.522;2022-08-19T08:27:31;55.38;;;45.10;;
28762;SDS011;15918;51.270;6.522;2022-08-19T08:30:00;52.28;;;45.80;;
28762;SDS011;15918;51.270;6.522;2022-08-19T08:32:25;58.05;;;46.35;;
28762;SDS011;15918;51.270;6.522;2022-08-19T08:34:51;52.13;;;43.85;;
28762;SDS011;15918;51.270;6.522;2022-08-19T08:37:17;51.63;;;40.55;;
28762;SDS011;15918;51.270;6.522;2022-08-19T08:39:43;47.63;;;38.75;;
28762;SDS011;15918;51.270;6.522;2022-08-19T08:42:15;45.72;;;37.55;;
28762;SDS011;15918;51.270;6.522;2022-08-19T08:47:30;37.35;;;32.58;;
28762;SDS011;15918;51.270;6.522;2022-08-19T08:50:42;37.70;;;32.47;;
28762;SDS011;15918;51.270;6.522;2022-08-19T08:52:56;35.60;;;31.23;;
28762;SDS011;15918;51.270;6.522;2022-08-19T08:55:24;38.00;;;30.75;;
28762;SDS011;15918;51.270;6.522;2022-08-19T08:57:58;34.85;;;29.00;;
28762;SDS011;15918;51.270;6.522;2022-08-19T09:00:44;36.65;;;31.20;;
28762;SDS011;15918;51.270;6.522;2022-08-19T09:05:51;35.45;;;29.88;;
28762;SDS011;15918;51.270;6.522;2022-08-19T09:11:29;30.75;;;27.42;;
28762;SDS011;15918;51.270;6.522;2022-08-19T09:14:48;32.05;;;28.52;;
28762;SDS011;15918;51.270;6.522;2022-08-19T09:16:57;34.22;;;27.08;;
28762;SDS011;15918;51.270;6.522;2022-08-19T09:19:24;30.02;;;25.27;;
28762;SDS011;15918;51.270;6.522;2022-08-19T09:21:50;29.95;;;25.88;;
28762;SDS011;15918;51.270;6.522;2022-08-19T09:24:15;28.73;;;25.25;;
28762;SDS011;15918;51.270;6.522;2022-08-19T09:26:41;27.30;;;24.58;;
28762;SDS011;15918;51.270;6.522;2022-08-19T09:29:08;31.27;;;26.48;;
28762;SDS011;15918;51.270;6.522;2022-08-19T09:31:34;27.75;;;24.73;;
28762;SDS011;15918;51.270;6.522;2022-08-19T09:34:00;30.63;;;27.23;;
28762;SDS011;15918;51.270;6.522;2022-08-19T09:36:28;26.38;;;23.48;;
28762;SDS011;15918;51.270;6.522;2022-08-19T09:38:57;25.02;;;22.10;;
28762;SDS011;15918;51.270;6.522;2022-08-19T09:41:23;24.38;;;19.88;;
28762;SDS011;15918;51.270;6.522;2022-08-19T09:43:51;21.52;;;18.45;;
28762;SDS011;15918;51.270;6.522;2022-08-19T09:46:20;20.73;;;17.75;;
28762;SDS011;15918;51.270;6.522;2022-08-19T09:48:47;22.05;;;16.77;;
28762;SDS011;15918;51.270;6.522;2022-08-19T09:51:15;18.38;;;15.07;;
28762;SDS011;15918;51.270;6.522;2022-08-19T09:53:44;20.88;;;14.75;;
28762;SDS011;15918;51.270;6.522;2022-08-19T09:56:10;17.40;;;14.98;;
28762;SDS011;15918;51.270;6.522;2022-08-19T09:58:37;16.83;;;14.80;;
28762;SDS011;15918;51.270;6.522;2022-08-19T10:01:04;17.60;;;14.55;;
28762;SDS011;15918;51.270;6.522;2022-08-19T10:03:31;19.42;;;13.40;;
28762;SDS011;15918;51.270;6.522;2022-08-19T10:05:59;15.43;;;13.27;;
28762;SDS011;15918;51.270;6.522;2022-08-19T10:08:28;14.50;;;12.98;;
28762;SDS011;15918;51.270;6.522;2022-08-19T10:10:55;14.23;;;12.68;;
28762;SDS011;15918;51.270;6.522;2022-08-19T10:13:23;15.68;;;13.95;;
28762;SDS011;15918;51.270;6.522;2022-08-19T10:15:52;21.27;;;13.52;;
28762;SDS011;15918;51.270;6.522;2022-08-19T10:18:21;21.92;;;13.40;;
28762;SDS011;15918;51.270;6.522;2022-08-19T10:20:48;20.23;;;12.98;;
28762;SDS011;15918;51.270;6.522;2022-08-19T10:23:15;17.25;;;13.68;;
28762;SDS011;15918;51.270;6.522;2022-08-19T10:25:42;15.20;;;12.63;;
28762;SDS011;15918;51.270;6.522;2022-08-19T10:28:08;14.20;;;11.63;;
28762;SDS011;15918;51.270;6.522;2022-08-19T10:30:37;16.38;;;11.70;;
28762;SDS011;15918;51.270;6.522;2022-08-19T10:33:06;15.40;;;12.52;;
28762;SDS011;15918;51.270;6.522;2022-08-19T10:35:32;13.15;;;11.48;;
28762;SDS011;15918;51.270;6.522;2022-08-19T10:37:58;15.95;;;12.23;;
28762;SDS011;15918;51.270;6.522;2022-08-19T10:40:24;13.60;;;12.15;;
28762;SDS011;15918;51.270;6.522;2022-08-19T10:42:51;17.85;;;12.52;;
28762;SDS011;15918;51.270;6.522;2022-08-19T10:45:17;17.30;;;12.30;;
28762;SDS011;15918;51.270;6.522;2022-08-19T10:47:43;15.27;;;13.55;;
28762;SDS011;15918;51.270;6.522;2022-08-19T10:50:09;15.95;;;13.35;;
28762;SDS011;15918;51.270;6.522;2022-08-19T10:52:53;16.40;;;13.45;;
28762;SDS011;15918;51.270;6.522;2022-08-19T10:55:20;14.75;;;13.25;;
28762;SDS011;15918;51.270;6.522;2022-08-19T10:58:17;15.55;;;13.95;;
28762;SDS011;15918;51.270;6.522;2022-08-19T11:00:52;16.63;;;13.90;;
28762;SDS011;15918;51.270;6.522;2022-08-19T11:03:19;15.35;;;13.23;;
28762;SDS011;15918;51.270;6.522;2022-08-19T11:05:45;16.35;;;13.45;;
28762;SDS011;15918;51.270;6.522;2022-08-19T11:08:10;14.82;;;13.38;;
28762;SDS011;15918;51.270;6.522;2022-08-19T11:10:36;15.88;;;13.93;;
28762;SDS011;15918;51.270;6.522;2022-08-19T11:13:06;13.95;;;12.55;;
28762;SDS011;15918;51.270;6.522;2022-08-19T11:15:31;14.95;;;13.35;;
28762;SDS011;15918;51.270;6.522;2022-08-19T11:17:58;16.42;;;13.23;;
28762;SDS011;15918;51.270;6.522;2022-08-19T11:20:23;16.15;;;12.65;;
28762;SDS011;15918;51.270;6.522;2022-08-19T11:22:51;19.70;;;13.13;;
28762;SDS011;15918;51.270;6.522;2022-08-19T11:25:18;12.75;;;11.35;;
28762;SDS011;15918;51.270;6.522;2022-08-19T11:27:44;12.30;;;11.13;;
28762;SDS011;15918;51.270;6.522;2022-08-19T11:30:12;15.85;;;11.88;;
28762;SDS011;15918;51.270;6.522;2022-08-19T11:32:41;12.45;;;11.07;;
28762;SDS011;15918;51.270;6.522;2022-08-19T11:35:07;12.70;;;11.40;;
28762;SDS011;15918;51.270;6.522;2022-08-19T11:37:33;13.43;;;12.02;;
28762;SDS011;15918;51.270;6.522;2022-08-19T11:40:02;12.43;;;11.07;;
28762;SDS011;15918;51.270;6.522;2022-08-19T11:42:29;12.63;;;11.32;;
28762;SDS011;15918;51.270;6.522;2022-08-19T11:45:13;11.82;;;10.68;;
28762;SDS011;15918;51.270;6.522;2022-08-19T11:47:39;12.27;;;11.07;;
28762;SDS011;15918;51.270;6.522;2022-08-19T11:50:05;13.38;;;9.52;;
28762;SDS011;15918;51.270;6.522;2022-08-19T11:52:31;10.93;;;9.75;;
28762;SDS011;15918;51.270;6.522;2022-08-19T11:54:56;10.15;;;9.02;;
28762;SDS011;15918;51.270;6.522;2022-08-19T11:57:22;11.50;;;9.55;;
28762;SDS011;15918;51.270;6.522;2022-08-19T11:59:49;14.23;;;9.82;;
28762;SDS011;15918;51.270;6.522;2022-08-19T12:02:16;12.60;;;9.80;;
28762;SDS011;15918;51.270;6.522;2022-08-19T12:04:42;11.30;;;10.07;;
28762;SDS011;15918;51.270;6.522;2022-08-19T12:07:07;11.75;;;9.88;;
28762;SDS011;15918;51.270;6.522;2022-08-19T12:09:33;12.93;;;10.15;;
28762;SDS011;15918;51.270;6.522;2022-08-19T12:11:59;12.63;;;9.65;;
28762;SDS011;15918;51.270;6.522;2022-08-19T12:14:26;10.10;;;9.00;;
28762;SDS011;15918;51.270;6.522;2022-08-19T12:16:54;8.50;;;7.70;;
28762;SDS011;15918;51.270;6.522;2022-08-19T12:19:20;8.98;;;8.07;;
28762;SDS011;15918;51.270;6.522;2022-08-19T12:21:46;9.20;;;8.38;;
28762;SDS011;15918;51.270;6.522;2022-08-19T12:24:12;10.00;;;8.18;;
28762;SDS011;15918;51.270;6.522;2022-08-19T12:26:38;9.93;;;8.13;;
28762;SDS011;15918;51.270;6.522;2022-08-19T12:29:03;11.18;;;7.72;;
28762;SDS011;15918;51.270;6.522;2022-08-19T12:31:29;11.23;;;7.65;;
28762;SDS011;15918;51.270;6.522;2022-08-19T12:33:55;15.65;;;8.10;;
28762;SDS011;15918;51.270;6.522;2022-08-19T12:36:21;11.45;;;7.28;;
28762;SDS011;15918;51.270;6.522;2022-08-19T12:38:48;10.10;;;7.60;;
28762;SDS011;15918;51.270;6.522;2022-08-19T12:41:14;9.73;;;7.32;;
28762;SDS011;15918;51.270;6.522;2022-08-19T12:43:42;11.95;;;7.25;;
28762;SDS011;15918;51.270;6.522;2022-08-19T12:46:08;8.70;;;7.03;;
28762;SDS011;15918;51.270;6.522;2022-08-19T12:48:35;7.35;;;6.20;;
28762;SDS011;15918;51.270;6.522;2022-08-19T12:51:05;9.15;;;6.35;;
28762;SDS011;15918;51.270;6.522;2022-08-19T12:53:32;7.90;;;6.55;;
28762;SDS011;15918;51.270;6.522;2022-08-19T12:55:58;10.90;;;6.30;;
28762;SDS011;15918;51.270;6.522;2022-08-19T12:58:24;6.88;;;6.15;;
28762;SDS011;15918;51.270;6.522;2022-08-19T13:00:50;6.28;;;5.68;;
28762;SDS011;15918;51.270;6.522;2022-08-19T13:03:16;6.90;;;6.20;;
28762;SDS011;15918;51.270;6.522;2022-08-19T13:05:42;9.70;;;6.35;;
28762;SDS011;15918;51.270;6.522;2022-08-19T13:08:07;7.50;;;6.15;;
28762;SDS011;15918;51.270;6.522;2022-08-19T13:10:34;7.65;;;6.07;;
28762;SDS011;15918;51.270;6.522;2022-08-19T13:13:02;7.80;;;5.90;;
28762;SDS011;15918;51.270;6.522;2022-08-19T13:15:32;8.68;;;6.18;;
28762;SDS011;15918;51.270;6.522;2022-08-19T13:17:59;8.35;;;6.13;;
28762;SDS011;15918;51.270;6.522;2022-08-19T13:20:25;8.65;;;5.65;;
28762;SDS011;15918;51.270;6.522;2022-08-19T13:22:51;9.10;;;5.90;;
28762;SDS011;15918;51.270;6.522;2022-08-19T13:25:17;6.18;;;5.20;;
28762;SDS011;15918;51.270;6.522;2022-08-19T13:27:44;5.85;;;5.25;;
28762;SDS011;15918;51.270;6.522;2022-08-19T13:30:11;11.50;;;5.93;;
28762;SDS011;15918;51.270;6.522;2022-08-19T13:32:57;8.82;;;5.45;;
28762;SDS011;15918;51.270;6.522;2022-08-19T13:35:49;6.57;;;5.20;;
28762;SDS011;15918;51.270;6.522;2022-08-19T13:38:20;7.18;;;5.65;;
28762;SDS011;15918;51.270;6.522;2022-08-19T13:40:47;6.60;;;5.40;;
28762;SDS011;15918;51.270;6.522;2022-08-19T13:43:15;6.95;;;5.18;;
28762;SDS011;15918;51.270;6.522;2022-08-19T13:45:42;7.47;;;5.18;;
28762;SDS011;15918;51.270;6.522;2022-08-19T13:48:08;6.82;;;5.00;;
28762;SDS011;15918;51.270;6.522;2022-08-19T13:50:37;5.85;;;5.03;;
28762;SDS011;15918;51.270;6.522;2022-08-19T13:53:06;6.88;;;5.13;;
28762;SDS011;15918;51.270;6.522;2022-08-19T13:55:33;6.53;;;4.95;;
28762;SDS011;15918;51.270;6.522;2022-08-19T13:57:59;6.72;;;5.03;;
28762;SDS011;15918;51.270;6.522;2022-08-19T14:00:27;5.28;;;4.72;;
28762;SDS011;15918;51.270;6.522;2022-08-19T14:02:56;6.10;;;5.32;;
28762;SDS011;15918;51.270;6.522;2022-08-19T14:05:22;5.38;;;4.68;;
28762;SDS011;15918;51.270;6.522;2022-08-19T14:07:49;7.03;;;5.30;;
28762;SDS011;15918;51.270;6.522;2022-08-19T14:10:15;8.63;;;5.25;;
28762;SDS011;15918;51.270;6.522;2022-08-19T14:12:41;7.20;;;5.65;;
28762;SDS011;15918;51.270;6.522;2022-08-19T14:15:07;7.22;;;5.30;;
28762;SDS011;15918;51.270;6.522;2022-08-19T14:17:37;7.80;;;5.80;;
28762;SDS011;15918;51.270;6.522;2022-08-19T14:20:04;8.63;;;4.97;;
28762;SDS011;15918;51.270;6.522;2022-08-19T14:22:34;6.50;;;4.93;;
28762;SDS011;15918;51.270;6.522;2022-08-19T14:25:00;6.90;;;4.85;;
28762;SDS011;15918;51.270;6.522;2022-08-19T14:27:27;6.95;;;4.43;;
28762;SDS011;15918;51.270;6.522;2022-08-19T14:29:52;14.35;;;5.10;;
28762;SDS011;15918;51.270;6.522;2022-08-19T14:32:20;7.05;;;4.45;;
28762;SDS011;15918;51.270;6.522;2022-08-19T14:34:46;5.38;;;4.80;;
28762;SDS011;15918;51.270;6.522;2022-08-19T14:37:13;6.30;;;4.63;;
28762;SDS011;15918;51.270;6.522;2022-08-19T14:39:42;7.15;;;4.72;;